ITY0275 LFPO-EKYT
Flight info
| Callsign | ITY0275 |
|---|---|
| Flight time | N/A |
| Altitude | 36000 |
| Route | NURMO2E/07 NURMO DCT CMB DCT ADUTO/N0444F380 N873 SPY/N0446F370 N873 MIKRO DCT ETVOK |
| Aircraft | A320/M-SDE3FGHIRWY/LB1 |
Departure
| Time | N/A |
|---|---|
| Airport | Paris-Orly Airport (LFPO) |
Arrival
| Time | 2026-05-01 08:17 |
|---|---|
| Airport | Aalborg Airport (EKYT) |
| Time | Latitude | Longitude | Altitude | Speed | Heading |
|---|---|---|---|---|---|
| 2026-05-01 07:23 | 52.91290 | 5.63894 | 36360 ft | 436 kts | 52° |
| 2026-05-01 07:24 | 52.96870 | 5.75881 | 36374 ft | 436 kts | 52° |
| 2026-05-01 07:24 | 53.00569 | 5.83847 | 36375 ft | 435 kts | 52° |
| 2026-05-01 07:25 | 53.04233 | 5.91753 | 36376 ft | 435 kts | 52° |
| 2026-05-01 07:25 | 53.07913 | 5.99726 | 36373 ft | 435 kts | 52° |
| 2026-05-01 07:26 | 53.11582 | 6.07732 | 36381 ft | 435 kts | 52° |
| 2026-05-01 07:26 | 53.15248 | 6.15745 | 36382 ft | 435 kts | 52° |
| 2026-05-01 07:27 | 53.18317 | 6.22450 | 36392 ft | 434 kts | 52° |
| 2026-05-01 07:27 | 53.21959 | 6.30444 | 36394 ft | 433 kts | 51° |
| 2026-05-01 07:28 | 53.25593 | 6.38466 | 36388 ft | 433 kts | 52° |
| 2026-05-01 07:28 | 53.29194 | 6.46437 | 36390 ft | 432 kts | 52° |
| 2026-05-01 07:29 | 53.32813 | 6.54463 | 36387 ft | 432 kts | 52° |
| 2026-05-01 07:29 | 53.36793 | 6.61943 | 36392 ft | 430 kts | 41° |
| 2026-05-01 07:30 | 53.41213 | 6.68691 | 36388 ft | 430 kts | 41° |
| 2026-05-01 07:30 | 53.45613 | 6.75477 | 36398 ft | 429 kts | 41° |
| 2026-05-01 07:31 | 53.49989 | 6.82259 | 36404 ft | 428 kts | 41° |
| 2026-05-01 07:32 | 53.61034 | 6.98960 | 36408 ft | 426 kts | 38° |
| 2026-05-01 07:33 | 53.67893 | 7.08504 | 36409 ft | 426 kts | 38° |
| 2026-05-01 07:33 | 53.74695 | 7.18166 | 36406 ft | 426 kts | 39° |
| 2026-05-01 07:34 | 53.81441 | 7.27945 | 36409 ft | 426 kts | 39° |
| 2026-05-01 07:35 | 53.86055 | 7.34231 | 36409 ft | 425 kts | 31° |
| 2026-05-01 07:35 | 53.91416 | 7.38332 | 36418 ft | 423 kts | 20° |
| 2026-05-01 07:36 | 53.97007 | 7.41434 | 36419 ft | 423 kts | 10° |
| 2026-05-01 07:36 | 54.02760 | 7.43246 | 36423 ft | 423 kts | 10° |
| 2026-05-01 07:37 | 54.11491 | 7.46013 | 36425 ft | 424 kts | 10° |
| 2026-05-01 07:37 | 54.17284 | 7.47857 | 36429 ft | 424 kts | 10° |
| 2026-05-01 07:38 | 54.23054 | 7.49698 | 36430 ft | 424 kts | 10° |
| 2026-05-01 07:39 | 54.31752 | 7.52466 | 36431 ft | 424 kts | 10° |
| 2026-05-01 07:39 | 54.40440 | 7.55242 | 36429 ft | 424 kts | 10° |
| 2026-05-01 07:40 | 54.46254 | 7.57115 | 36428 ft | 424 kts | 10° |
| 2026-05-01 07:40 | 54.52063 | 7.58984 | 36430 ft | 424 kts | 10° |
| 2026-05-01 07:41 | 54.57864 | 7.60860 | 36427 ft | 424 kts | 11° |
| 2026-05-01 07:42 | 54.66567 | 7.63703 | 36431 ft | 424 kts | 11° |
| 2026-05-01 07:42 | 54.72370 | 7.65591 | 36427 ft | 424 kts | 10° |
| 2026-05-01 07:43 | 54.78174 | 7.67470 | 36429 ft | 424 kts | 11° |
| 2026-05-01 07:43 | 54.86883 | 7.70311 | 36426 ft | 424 kts | 11° |
| 2026-05-01 07:44 | 54.98464 | 7.74248 | 36421 ft | 424 kts | 16° |
| 2026-05-01 07:45 | 55.03829 | 7.78460 | 36420 ft | 424 kts | 30° |
| 2026-05-01 07:45 | 55.08941 | 7.83605 | 36418 ft | 425 kts | 29° |
| 2026-05-01 07:46 | 55.14065 | 7.88751 | 36418 ft | 425 kts | 29° |
| 2026-05-01 07:47 | 55.21744 | 7.96508 | 36422 ft | 425 kts | 30° |
| 2026-05-01 07:47 | 55.26851 | 8.01719 | 36423 ft | 425 kts | 30° |
| 2026-05-01 07:48 | 55.34352 | 8.10043 | 36421 ft | 425 kts | 32° |
| 2026-05-01 07:48 | 55.39316 | 8.15694 | 36419 ft | 425 kts | 32° |
| 2026-05-01 07:49 | 55.46796 | 8.24110 | 36419 ft | 425 kts | 32° |
| 2026-05-01 07:50 | 55.51788 | 8.29704 | 36421 ft | 425 kts | 32° |
| 2026-05-01 07:50 | 55.59223 | 8.38116 | 35917 ft | 424 kts | 32° |
| 2026-05-01 07:51 | 55.61714 | 8.40946 | 35193 ft | 425 kts | 32° |
| 2026-05-01 07:51 | 55.64202 | 8.43776 | 34592 ft | 424 kts | 32° |
| 2026-05-01 07:51 | 55.66668 | 8.46587 | 34040 ft | 420 kts | 32° |
| 2026-05-01 07:52 | 55.71549 | 8.52157 | 32886 ft | 414 kts | 32° |
| 2026-05-01 07:52 | 55.73970 | 8.54915 | 32316 ft | 412 kts | 32° |
| 2026-05-01 07:52 | 55.76368 | 8.57651 | 31792 ft | 409 kts | 32° |
| 2026-05-01 07:53 | 55.81124 | 8.63096 | 30759 ft | 404 kts | 32° |
| 2026-05-01 07:53 | 55.83483 | 8.65808 | 30200 ft | 402 kts | 33° |
| 2026-05-01 07:53 | 55.85819 | 8.68501 | 29632 ft | 400 kts | 33° |
| 2026-05-01 07:53 | 55.88145 | 8.71180 | 29081 ft | 397 kts | 33° |
| 2026-05-01 07:54 | 55.92751 | 8.76491 | 28032 ft | 392 kts | 33° |
| 2026-05-01 07:55 | 55.99555 | 8.84361 | 26563 ft | 385 kts | 33° |
| 2026-05-01 07:55 | 56.04030 | 8.89573 | 25563 ft | 382 kts | 33° |
| 2026-05-01 07:56 | 56.10626 | 8.97264 | 24213 ft | 375 kts | 33° |
| 2026-05-01 07:56 | 56.14974 | 9.02359 | 23207 ft | 371 kts | 33° |
| 2026-05-01 07:57 | 56.17124 | 9.04883 | 22724 ft | 369 kts | 33° |
| 2026-05-01 07:57 | 56.21390 | 9.09906 | 21797 ft | 364 kts | 33° |
| 2026-05-01 07:58 | 56.25602 | 9.14872 | 20897 ft | 360 kts | 33° |
| 2026-05-01 07:58 | 56.29766 | 9.19799 | 20037 ft | 357 kts | 33° |
| 2026-05-01 07:59 | 56.33881 | 9.24684 | 19233 ft | 352 kts | 33° |
| 2026-05-01 07:59 | 56.37954 | 9.29522 | 18422 ft | 348 kts | 33° |
| 2026-05-01 08:00 | 56.45968 | 9.39073 | 16725 ft | 342 kts | 33° |
| 2026-05-01 08:01 | 56.51860 | 9.46144 | 15539 ft | 339 kts | 33° |
| 2026-05-01 08:01 | 56.53822 | 9.48506 | 15157 ft | 338 kts | 33° |
| 2026-05-01 08:01 | 56.55776 | 9.50858 | 14783 ft | 337 kts | 33° |
| 2026-05-01 08:02 | 56.59666 | 9.55547 | 14033 ft | 335 kts | 33° |
| 2026-05-01 08:02 | 56.61600 | 9.57880 | 13631 ft | 333 kts | 33° |
| 2026-05-01 08:03 | 56.65441 | 9.62514 | 12863 ft | 329 kts | 33° |
| 2026-05-01 08:03 | 56.67343 | 9.64813 | 12499 ft | 326 kts | 34° |
| 2026-05-01 08:03 | 56.71034 | 9.69299 | 11986 ft | 315 kts | 34° |
| 2026-05-01 08:04 | 56.74087 | 9.75011 | 11001 ft | 319 kts | 54° |
| 2026-05-01 08:04 | 56.76695 | 9.81389 | 10485 ft | 308 kts | 54° |
| 2026-05-01 08:05 | 56.79238 | 9.87620 | 9748 ft | 304 kts | 54° |
| 2026-05-01 08:05 | 56.80495 | 9.90711 | 9357 ft | 302 kts | 54° |
| 2026-05-01 08:05 | 56.81735 | 9.93776 | 8961 ft | 300 kts | 54° |
| 2026-05-01 08:06 | 56.84186 | 9.99874 | 8191 ft | 296 kts | 54° |
| 2026-05-01 08:06 | 56.86560 | 10.05942 | 7460 ft | 291 kts | 54° |
| 2026-05-01 08:07 | 56.88893 | 10.11960 | 7214 ft | 289 kts | 54° |
| 2026-05-01 08:07 | 56.91201 | 10.17948 | 6393 ft | 287 kts | 54° |
| 2026-05-01 08:08 | 56.92341 | 10.20922 | 5982 ft | 284 kts | 54° |
| 2026-05-01 08:08 | 56.94862 | 10.26061 | 5650 ft | 261 kts | 45° |
| 2026-05-01 08:09 | 56.97299 | 10.30628 | 5388 ft | 242 kts | 45° |
| 2026-05-01 08:09 | 56.98462 | 10.32824 | 5117 ft | 239 kts | 45° |
| 2026-05-01 08:09 | 56.99616 | 10.35014 | 4832 ft | 238 kts | 45° |
| 2026-05-01 08:10 | 57.02192 | 10.38153 | 4452 ft | 218 kts | 360° |
| 2026-05-01 08:10 | 57.05067 | 10.37077 | 3898 ft | 209 kts | 328° |
| 2026-05-01 08:11 | 57.07554 | 10.34358 | 3390 ft | 207 kts | 324° |
| 2026-05-01 08:11 | 57.09386 | 10.30582 | 3013 ft | 198 kts | 296° |
| 2026-05-01 08:12 | 57.10652 | 10.26071 | 2998 ft | 199 kts | 295° |
| 2026-05-01 08:12 | 57.11268 | 10.23820 | 2995 ft | 192 kts | 295° |
| 2026-05-01 08:12 | 57.11626 | 10.19297 | 3005 ft | 178 kts | 264° |
| 2026-05-01 08:13 | 57.11487 | 10.17041 | 2999 ft | 177 kts | 263° |
| 2026-05-01 08:13 | 57.11349 | 10.14786 | 2950 ft | 177 kts | 263° |
| 2026-05-01 08:13 | 57.11075 | 10.10353 | 2481 ft | 171 kts | 264° |
| 2026-05-01 08:14 | 57.10942 | 10.08208 | 2255 ft | 166 kts | 263° |
| 2026-05-01 08:14 | 57.10856 | 10.06827 | 2110 ft | 163 kts | 263° |
| 2026-05-01 08:14 | 57.10728 | 10.04775 | 1883 ft | 160 kts | 263° |
| 2026-05-01 08:14 | 57.10601 | 10.02747 | 1658 ft | 158 kts | 263° |
| 2026-05-01 08:15 | 57.10481 | 10.00832 | 1457 ft | 145 kts | 265° |
| 2026-05-01 08:15 | 57.10264 | 9.97373 | 1103 ft | 128 kts | 263° |
| 2026-05-01 08:15 | 57.10163 | 9.95771 | 931 ft | 125 kts | 263° |
| 2026-05-01 08:16 | 57.10062 | 9.94181 | 760 ft | 126 kts | 262° |
| 2026-05-01 08:16 | 57.09960 | 9.92567 | 600 ft | 126 kts | 263° |
| 2026-05-01 08:16 | 57.09860 | 9.90985 | 416 ft | 124 kts | 262° |
| 2026-05-01 08:16 | 57.09763 | 9.89397 | 246 ft | 125 kts | 261° |
| 2026-05-01 08:17 | 57.09663 | 9.87838 | 67 ft | 122 kts | 261° |
| 2026-05-01 08:17 | 57.09571 | 9.86392 | 21 ft | 98 kts | 263° |
| 2026-05-01 08:17 | 57.09510 | 9.85449 | 19 ft | 56 kts | 264° |
| 2026-05-01 08:17 | 57.09469 | 9.84807 | 19 ft | 46 kts | 263° |
| 2026-05-01 08:18 | 57.09439 | 9.84328 | 19 ft | 22 kts | 268° |
| 2026-05-01 08:18 | 57.09520 | 9.84112 | 19 ft | 5 kts | 324° |
| 2026-05-01 08:19 | 57.09570 | 9.84042 | 19 ft | 4 kts | 322° |
| 2026-05-01 08:19 | 57.09591 | 9.84012 | 19 ft | 4 kts | 322° |
| 2026-05-01 08:19 | 57.09617 | 9.83988 | 19 ft | 7 kts | 341° |
| 2026-05-01 08:19 | 57.09646 | 9.83987 | 19 ft | 2 kts | 10° |
| 2026-05-01 08:20 | 57.09650 | 9.83990 | 19 ft | 2 kts | 18° |
| 2026-05-01 08:20 | 57.09650 | 9.84006 | 19 ft | 3 kts | 97° |
| 2026-05-01 08:20 | 57.09639 | 9.84108 | 19 ft | 12 kts | 86° |
| 2026-05-01 08:20 | 57.09650 | 9.84301 | 19 ft | 18 kts | 83° |
| 2026-05-01 08:21 | 57.09666 | 9.84563 | 19 ft | 23 kts | 83° |
| 2026-05-01 08:21 | 57.09689 | 9.84897 | 19 ft | 29 kts | 82° |
| 2026-05-01 08:21 | 57.09714 | 9.85273 | 19 ft | 29 kts | 83° |
| 2026-05-01 08:21 | 57.09737 | 9.85628 | 19 ft | 23 kts | 83° |
| 2026-05-01 08:22 | 57.09749 | 9.85826 | 19 ft | 8 kts | 94° |
| 2026-05-01 08:22 | 57.09711 | 9.85837 | 19 ft | 6 kts | 205° |
| 2026-05-01 08:22 | 57.09668 | 9.85791 | 19 ft | 9 kts | 212° |
| 2026-05-01 08:22 | 57.09634 | 9.85751 | 19 ft | 0 kts | 211° |
| 2026-05-01 08:23 | 57.09631 | 9.85748 | 19 ft | 2 kts | 211° |
| 2026-05-01 08:23 | 57.09607 | 9.85719 | 19 ft | 7 kts | 213° |
| 2026-05-01 08:24 | 57.09549 | 9.85663 | 19 ft | 12 kts | 192° |
| 2026-05-01 08:24 | 57.09459 | 9.85721 | 19 ft | 17 kts | 143° |
| 2026-05-01 08:24 | 57.09352 | 9.85869 | 19 ft | 22 kts | 143° |
| 2026-05-01 08:24 | 57.09221 | 9.86057 | 19 ft | 26 kts | 143° |
| 2026-05-01 08:25 | 57.09064 | 9.86276 | 19 ft | 30 kts | 142° |
| 2026-05-01 08:25 | 57.08887 | 9.86529 | 19 ft | 34 kts | 141° |
| 2026-05-01 08:25 | 57.08735 | 9.86757 | 19 ft | 25 kts | 140° |
| 2026-05-01 08:25 | 57.08638 | 9.86913 | 19 ft | 8 kts | 133° |
| 2026-05-01 08:26 | 57.08660 | 9.86976 | 16 ft | 5 kts | 45° |
| 2026-05-01 08:26 | 57.08674 | 9.87010 | 20 ft | 1 kts | 55° |
| 2026-05-01 08:26 | 57.08675 | 9.87013 | 20 ft | 0 kts | 56° |